sensor_id;sensor_type;location;lat;lon;timestamp;P1;durP1;ratioP1;P2;durP2;ratioP2
52186;SDS011;38161;53.020;6.598;2023-02-14T00:00:08;27.92;;;13.27;;
52186;SDS011;38161;53.020;6.598;2023-02-14T00:02:34;127.80;;;18.75;;
52186;SDS011;38161;53.020;6.598;2023-02-14T00:05:00;84.63;;;16.75;;
52186;SDS011;38161;53.020;6.598;2023-02-14T00:07:25;57.33;;;15.87;;
52186;SDS011;38161;53.020;6.598;2023-02-14T00:09:51;54.50;;;15.60;;
52186;SDS011;38161;53.020;6.598;2023-02-14T00:12:17;23.00;;;14.97;;
52186;SDS011;38161;53.020;6.598;2023-02-14T00:14:43;25.03;;;14.90;;
52186;SDS011;38161;53.020;6.598;2023-02-14T00:17:27;24.30;;;15.30;;
52186;SDS011;38161;53.020;6.598;2023-02-14T00:19:53;23.80;;;14.67;;
52186;SDS011;38161;53.020;6.598;2023-02-14T00:22:19;25.73;;;14.85;;
52186;SDS011;38161;53.020;6.598;2023-02-14T00:24:44;26.23;;;16.57;;
52186;SDS011;38161;53.020;6.598;2023-02-14T00:27:11;30.73;;;16.90;;
52186;SDS011;38161;53.020;6.598;2023-02-14T00:29:37;28.43;;;16.83;;
52186;SDS011;38161;53.020;6.598;2023-02-14T00:32:02;25.53;;;15.83;;
52186;SDS011;38161;53.020;6.598;2023-02-14T00:34:28;29.65;;;17.02;;
52186;SDS011;38161;53.020;6.598;2023-02-14T00:36:54;25.33;;;15.53;;
52186;SDS011;38161;53.020;6.598;2023-02-14T00:39:20;24.23;;;14.88;;
52186;SDS011;38161;53.020;6.598;2023-02-14T00:41:46;26.40;;;15.93;;
52186;SDS011;38161;53.020;6.598;2023-02-14T00:44:12;27.23;;;15.88;;
52186;SDS011;38161;53.020;6.598;2023-02-14T00:46:38;27.63;;;16.70;;
52186;SDS011;38161;53.020;6.598;2023-02-14T00:49:04;31.63;;;16.77;;
52186;SDS011;38161;53.020;6.598;2023-02-14T00:51:30;34.70;;;18.58;;
52186;SDS011;38161;53.020;6.598;2023-02-14T00:53:56;63.23;;;19.93;;
52186;SDS011;38161;53.020;6.598;2023-02-14T00:56:22;53.60;;;21.20;;
52186;SDS011;38161;53.020;6.598;2023-02-14T00:58:48;59.60;;;20.17;;
52186;SDS011;38161;53.020;6.598;2023-02-14T01:01:15;40.20;;;20.87;;
52186;SDS011;38161;53.020;6.598;2023-02-14T01:03:47;36.17;;;20.03;;
52186;SDS011;38161;53.020;6.598;2023-02-14T01:06:16;34.70;;;19.33;;
52186;SDS011;38161;53.020;6.598;2023-02-14T01:08:42;98.70;;;23.63;;
52186;SDS011;38161;53.020;6.598;2023-02-14T01:11:12;88.33;;;22.33;;
52186;SDS011;38161;53.020;6.598;2023-02-14T01:13:41;84.10;;;20.83;;
52186;SDS011;38161;53.020;6.598;2023-02-14T01:18:35;110.80;;;20.88;;
52186;SDS011;38161;53.020;6.598;2023-02-14T01:21:11;186.88;;;25.27;;
52186;SDS011;38161;53.020;6.598;2023-02-14T01:23:45;295.77;;;28.03;;
52186;SDS011;38161;53.020;6.598;2023-02-14T01:26:13;404.07;;;33.50;;
52186;SDS011;38161;53.020;6.598;2023-02-14T01:28:40;243.77;;;28.33;;
52186;SDS011;38161;53.020;6.598;2023-02-14T01:31:07;130.80;;;22.63;;
52186;SDS011;38161;53.020;6.598;2023-02-14T01:33:43;134.00;;;22.88;;
52186;SDS011;38161;53.020;6.598;2023-02-14T01:36:21;55.27;;;20.53;;
52186;SDS011;38161;53.020;6.598;2023-02-14T01:38:52;42.57;;;20.00;;
52186;SDS011;38161;53.020;6.598;2023-02-14T01:41:19;44.93;;;21.23;;
52186;SDS011;38161;53.020;6.598;2023-02-14T01:43:48;98.35;;;23.27;;
52186;SDS011;38161;53.020;6.598;2023-02-14T01:46:14;54.37;;;19.40;;
52186;SDS011;38161;53.020;6.598;2023-02-14T01:48:39;270.10;;;27.10;;
52186;SDS011;38161;53.020;6.598;2023-02-14T01:51:05;82.82;;;19.40;;
52186;SDS011;38161;53.020;6.598;2023-02-14T01:53:32;115.63;;;20.83;;
52186;SDS011;38161;53.020;6.598;2023-02-14T01:56:02;244.43;;;26.73;;
52186;SDS011;38161;53.020;6.598;2023-02-14T01:58:34;208.90;;;26.43;;
52186;SDS011;38161;53.020;6.598;2023-02-14T02:01:03;114.03;;;23.97;;
52186;SDS011;38161;53.020;6.598;2023-02-14T02:03:34;96.93;;;23.17;;
52186;SDS011;38161;53.020;6.598;2023-02-14T02:06:10;83.77;;;20.93;;
52186;SDS011;38161;53.020;6.598;2023-02-14T02:08:43;109.50;;;22.33;;
52186;SDS011;38161;53.020;6.598;2023-02-14T02:11:26;42.70;;;18.57;;
52186;SDS011;38161;53.020;6.598;2023-02-14T02:13:52;31.90;;;17.58;;
52186;SDS011;38161;53.020;6.598;2023-02-14T02:16:20;53.63;;;18.23;;
52186;SDS011;38161;53.020;6.598;2023-02-14T02:30:11;132.23;;;23.87;;
52186;SDS011;38161;53.020;6.598;2023-02-14T02:41:13;70.90;;;15.93;;
52186;SDS011;38161;53.020;6.598;2023-02-14T02:52:47;156.70;;;19.33;;
52186;SDS011;38161;53.020;6.598;2023-02-14T03:01:22;117.40;;;18.90;;
52186;SDS011;38161;53.020;6.598;2023-02-14T03:03:57;45.07;;;16.90;;
52186;SDS011;38161;53.020;6.598;2023-02-14T03:06:44;33.20;;;15.80;;
52186;SDS011;38161;53.020;6.598;2023-02-14T03:09:11;136.25;;;19.38;;
52186;SDS011;38161;53.020;6.598;2023-02-14T03:11:38;66.03;;;17.37;;
52186;SDS011;38161;53.020;6.598;2023-02-14T03:14:18;31.67;;;14.93;;
52186;SDS011;38161;53.020;6.598;2023-02-14T03:19:39;44.27;;;15.73;;
52186;SDS011;38161;53.020;6.598;2023-02-14T03:22:48;65.30;;;16.23;;
52186;SDS011;38161;53.020;6.598;2023-02-14T03:25:42;255.13;;;23.13;;
52186;SDS011;38161;53.020;6.598;2023-02-14T03:28:21;202.37;;;20.73;;
52186;SDS011;38161;53.020;6.598;2023-02-14T03:33:36;138.93;;;18.53;;
52186;SDS011;38161;53.020;6.598;2023-02-14T03:36:11;390.07;;;25.00;;
52186;SDS011;38161;53.020;6.598;2023-02-14T03:38:42;257.50;;;22.13;;
52186;SDS011;38161;53.020;6.598;2023-02-14T03:41:26;284.00;;;21.53;;
52186;SDS011;38161;53.020;6.598;2023-02-14T03:43:56;601.73;;;32.90;;
52186;SDS011;38161;53.020;6.598;2023-02-14T03:49:04;359.40;;;25.53;;
52186;SDS011;38161;53.020;6.598;2023-02-14T03:51:36;386.43;;;26.53;;
52186;SDS011;38161;53.020;6.598;2023-02-14T03:54:05;363.47;;;26.03;;
52186;SDS011;38161;53.020;6.598;2023-02-14T03:56:43;316.27;;;23.23;;
52186;SDS011;38161;53.020;6.598;2023-02-14T03:59:23;229.10;;;21.77;;
52186;SDS011;38161;53.020;6.598;2023-02-14T04:04:34;98.40;;;17.53;;
52186;SDS011;38161;53.020;6.598;2023-02-14T04:07:08;227.77;;;20.87;;
52186;SDS011;38161;53.020;6.598;2023-02-14T04:09:38;141.73;;;19.43;;
52186;SDS011;38161;53.020;6.598;2023-02-14T04:12:04;51.05;;;16.02;;
52186;SDS011;38161;53.020;6.598;2023-02-14T04:14:29;132.13;;;19.60;;
52186;SDS011;38161;53.020;6.598;2023-02-14T04:16:55;61.23;;;17.03;;
52186;SDS011;38161;53.020;6.598;2023-02-14T04:19:39;124.30;;;16.40;;
52186;SDS011;38161;53.020;6.598;2023-02-14T04:22:05;67.38;;;16.02;;
52186;SDS011;38161;53.020;6.598;2023-02-14T04:24:31;44.87;;;15.17;;
52186;SDS011;38161;53.020;6.598;2023-02-14T04:26:56;67.20;;;16.73;;
52186;SDS011;38161;53.020;6.598;2023-02-14T04:29:43;86.20;;;17.10;;
52186;SDS011;38161;53.020;6.598;2023-02-14T04:32:12;109.07;;;17.83;;
52186;SDS011;38161;53.020;6.598;2023-02-14T04:34:42;115.00;;;17.30;;
52186;SDS011;38161;53.020;6.598;2023-02-14T04:37:08;201.13;;;20.95;;
52186;SDS011;38161;53.020;6.598;2023-02-14T04:39:34;450.30;;;32.53;;
52186;SDS011;38161;53.020;6.598;2023-02-14T04:42:00;278.27;;;23.05;;
52186;SDS011;38161;53.020;6.598;2023-02-14T04:46:52;28.37;;;14.03;;
52186;SDS011;38161;53.020;6.598;2023-02-14T04:49:18;47.10;;;16.23;;
52186;SDS011;38161;53.020;6.598;2023-02-14T04:51:44;47.08;;;16.95;;
52186;SDS011;38161;53.020;6.598;2023-02-14T04:54:10;32.53;;;16.07;;
52186;SDS011;38161;53.020;6.598;2023-02-14T04:56:36;93.78;;;18.70;;
52186;SDS011;38161;53.020;6.598;2023-02-14T04:59:02;233.60;;;23.80;;
52186;SDS011;38161;53.020;6.598;2023-02-14T05:01:28;426.70;;;31.98;;
52186;SDS011;38161;53.020;6.598;2023-02-14T05:03:53;162.20;;;22.53;;
52186;SDS011;38161;53.020;6.598;2023-02-14T05:06:19;700.40;;;46.50;;
52186;SDS011;38161;53.020;6.598;2023-02-14T05:08:45;131.63;;;20.57;;
52186;SDS011;38161;53.020;6.598;2023-02-14T05:11:10;325.83;;;29.67;;
52186;SDS011;38161;53.020;6.598;2023-02-14T05:13:36;68.87;;;18.80;;
52186;SDS011;38161;53.020;6.598;2023-02-14T05:16:02;60.28;;;19.13;;
52186;SDS011;38161;53.020;6.598;2023-02-14T05:18:28;160.63;;;23.98;;
52186;SDS011;38161;53.020;6.598;2023-02-14T05:20:54;36.70;;;18.00;;
52186;SDS011;38161;53.020;6.598;2023-02-14T05:23:20;61.85;;;18.85;;
52186;SDS011;38161;53.020;6.598;2023-02-14T05:25:47;46.47;;;18.93;;
52186;SDS011;38161;53.020;6.598;2023-02-14T05:28:13;35.83;;;18.98;;
52186;SDS011;38161;53.020;6.598;2023-02-14T05:30:39;39.13;;;19.00;;
52186;SDS011;38161;53.020;6.598;2023-02-14T05:33:05;252.10;;;25.53;;
52186;SDS011;38161;53.020;6.598;2023-02-14T05:35:32;45.40;;;17.58;;
52186;SDS011;38161;53.020;6.598;2023-02-14T05:37:58;50.40;;;17.63;;
52186;SDS011;38161;53.020;6.598;2023-02-14T05:40:24;188.68;;;24.17;;
52186;SDS011;38161;53.020;6.598;2023-02-14T05:42:53;53.40;;;19.88;;
52186;SDS011;38161;53.020;6.598;2023-02-14T05:45:20;39.93;;;16.67;;
52186;SDS011;38161;53.020;6.598;2023-02-14T05:47:47;68.73;;;17.00;;
52186;SDS011;38161;53.020;6.598;2023-02-14T05:52:39;195.00;;;24.87;;
52186;SDS011;38161;53.020;6.598;2023-02-14T05:55:05;150.57;;;20.77;;
52186;SDS011;38161;53.020;6.598;2023-02-14T05:57:31;636.92;;;44.75;;
52186;SDS011;38161;53.020;6.598;2023-02-14T05:59:57;456.87;;;31.73;;
52186;SDS011;38161;53.020;6.598;2023-02-14T06:02:23;290.73;;;28.40;;
52186;SDS011;38161;53.020;6.598;2023-02-14T06:04:48;505.33;;;38.92;;
52186;SDS011;38161;53.020;6.598;2023-02-14T06:07:15;325.92;;;30.33;;
52186;SDS011;38161;53.020;6.598;2023-02-14T06:09:41;310.30;;;31.02;;
52186;SDS011;38161;53.020;6.598;2023-02-14T06:12:06;322.50;;;26.07;;
52186;SDS011;38161;53.020;6.598;2023-02-14T06:14:32;193.77;;;21.60;;
52186;SDS011;38161;53.020;6.598;2023-02-14T06:16:58;85.77;;;18.20;;
52186;SDS011;38161;53.020;6.598;2023-02-14T06:19:23;99.70;;;18.80;;
52186;SDS011;38161;53.020;6.598;2023-02-14T06:21:49;135.47;;;21.80;;
52186;SDS011;38161;53.020;6.598;2023-02-14T06:24:15;203.80;;;21.37;;
52186;SDS011;38161;53.020;6.598;2023-02-14T06:26:41;105.00;;;17.27;;
52186;SDS011;38161;53.020;6.598;2023-02-14T06:29:06;122.23;;;18.23;;
52186;SDS011;38161;53.020;6.598;2023-02-14T06:31:32;47.93;;;16.30;;
52186;SDS011;38161;53.020;6.598;2023-02-14T06:33:58;61.13;;;15.67;;
52186;SDS011;38161;53.020;6.598;2023-02-14T06:36:24;253.60;;;22.97;;
52186;SDS011;38161;53.020;6.598;2023-02-14T06:38:49;175.63;;;18.88;;
52186;SDS011;38161;53.020;6.598;2023-02-14T06:41:15;156.27;;;17.90;;
52186;SDS011;38161;53.020;6.598;2023-02-14T06:43:42;94.68;;;16.98;;
52186;SDS011;38161;53.020;6.598;2023-02-14T06:46:09;135.10;;;17.30;;
52186;SDS011;38161;53.020;6.598;2023-02-14T06:48:35;77.97;;;15.32;;
52186;SDS011;38161;53.020;6.598;2023-02-14T06:51:01;156.82;;;20.58;;
52186;SDS011;38161;53.020;6.598;2023-02-14T06:53:27;144.30;;;18.40;;
52186;SDS011;38161;53.020;6.598;2023-02-14T06:55:52;101.10;;;16.73;;
52186;SDS011;38161;53.020;6.598;2023-02-14T06:58:18;143.73;;;16.63;;
52186;SDS011;38161;53.020;6.598;2023-02-14T07:00:45;255.43;;;22.80;;
52186;SDS011;38161;53.020;6.598;2023-02-14T07:03:11;343.70;;;23.30;;
52186;SDS011;38161;53.020;6.598;2023-02-14T07:05:37;361.00;;;25.55;;
52186;SDS011;38161;53.020;6.598;2023-02-14T07:08:03;256.67;;;21.27;;
52186;SDS011;38161;53.020;6.598;2023-02-14T07:10:31;171.70;;;18.80;;
52186;SDS011;38161;53.020;6.598;2023-02-14T07:12:58;111.60;;;15.97;;
52186;SDS011;38161;53.020;6.598;2023-02-14T07:15:24;211.07;;;19.48;;
52186;SDS011;38161;53.020;6.598;2023-02-14T07:17:50;60.78;;;16.05;;
52186;SDS011;38161;53.020;6.598;2023-02-14T07:20:16;70.20;;;18.40;;
52186;SDS011;38161;53.020;6.598;2023-02-14T07:22:42;33.70;;;14.07;;
52186;SDS011;38161;53.020;6.598;2023-02-14T07:25:09;65.13;;;15.85;;
52186;SDS011;38161;53.020;6.598;2023-02-14T07:30:01;43.40;;;15.23;;
52186;SDS011;38161;53.020;6.598;2023-02-14T07:32:28;109.73;;;17.50;;
52186;SDS011;38161;53.020;6.598;2023-02-14T07:34:54;100.10;;;16.73;;
52186;SDS011;38161;53.020;6.598;2023-02-14T07:37:20;125.68;;;16.95;;
52186;SDS011;38161;53.020;6.598;2023-02-14T07:39:45;75.10;;;15.03;;
52186;SDS011;38161;53.020;6.598;2023-02-14T07:42:11;167.07;;;18.33;;
52186;SDS011;38161;53.020;6.598;2023-02-14T07:44:37;113.07;;;16.40;;
52186;SDS011;38161;53.020;6.598;2023-02-14T07:49:30;100.70;;;17.43;;
52186;SDS011;38161;53.020;6.598;2023-02-14T07:51:56;53.87;;;14.73;;
52186;SDS011;38161;53.020;6.598;2023-02-14T07:54:22;38.47;;;13.30;;
52186;SDS011;38161;53.020;6.598;2023-02-14T07:56:47;62.77;;;16.00;;
52186;SDS011;38161;53.020;6.598;2023-02-14T07:59:13;134.43;;;17.75;;
52186;SDS011;38161;53.020;6.598;2023-02-14T08:01:39;58.67;;;16.00;;
52186;SDS011;38161;53.020;6.598;2023-02-14T08:04:05;51.08;;;14.77;;
52186;SDS011;38161;53.020;6.598;2023-02-14T08:06:31;44.50;;;13.67;;
52186;SDS011;38161;53.020;6.598;2023-02-14T08:08:58;65.40;;;15.37;;
52186;SDS011;38161;53.020;6.598;2023-02-14T08:11:24;141.27;;;17.07;;
52186;SDS011;38161;53.020;6.598;2023-02-14T08:14:08;157.40;;;18.57;;
52186;SDS011;38161;53.020;6.598;2023-02-14T08:16:34;124.17;;;16.80;;
52186;SDS011;38161;53.020;6.598;2023-02-14T08:19:00;93.28;;;16.35;;
52186;SDS011;38161;53.020;6.598;2023-02-14T08:21:26;151.05;;;17.60;;
52186;SDS011;38161;53.020;6.598;2023-02-14T08:23:52;109.03;;;16.77;;
52186;SDS011;38161;53.020;6.598;2023-02-14T08:26:18;88.00;;;16.33;;
52186;SDS011;38161;53.020;6.598;2023-02-14T08:28:44;72.63;;;15.77;;
52186;SDS011;38161;53.020;6.598;2023-02-14T08:31:10;78.03;;;15.77;;
52186;SDS011;38161;53.020;6.598;2023-02-14T08:33:36;71.45;;;15.82;;
52186;SDS011;38161;53.020;6.598;2023-02-14T08:36:02;56.27;;;16.63;;
52186;SDS011;38161;53.020;6.598;2023-02-14T08:38:28;101.65;;;17.23;;
52186;SDS011;38161;53.020;6.598;2023-02-14T08:40:58;67.18;;;17.65;;
52186;SDS011;38161;53.020;6.598;2023-02-14T08:43:25;70.23;;;17.17;;
52186;SDS011;38161;53.020;6.598;2023-02-14T08:45:51;137.07;;;21.33;;
52186;SDS011;38161;53.020;6.598;2023-02-14T08:48:18;59.95;;;18.33;;
52186;SDS011;38161;53.020;6.598;2023-02-14T08:50:44;72.03;;;18.88;;
52186;SDS011;38161;53.020;6.598;2023-02-14T08:53:11;27.30;;;16.40;;
52186;SDS011;38161;53.020;6.598;2023-02-14T08:55:37;33.53;;;17.67;;
52186;SDS011;38161;53.020;6.598;2023-02-14T08:58:04;29.50;;;18.40;;
52186;SDS011;38161;53.020;6.598;2023-02-14T09:00:31;29.40;;;17.67;;
52186;SDS011;38161;53.020;6.598;2023-02-14T09:02:57;30.75;;;18.48;;
52186;SDS011;38161;53.020;6.598;2023-02-14T09:05:24;30.25;;;17.95;;
52186;SDS011;38161;53.020;6.598;2023-02-14T09:07:50;39.30;;;23.63;;
52186;SDS011;38161;53.020;6.598;2023-02-14T09:10:16;39.13;;;22.52;;
52186;SDS011;38161;53.020;6.598;2023-02-14T09:12:43;49.10;;;27.85;;
52186;SDS011;38161;53.020;6.598;2023-02-14T09:17:35;52.47;;;29.27;;
52186;SDS011;38161;53.020;6.598;2023-02-14T09:20:03;48.63;;;28.77;;
52186;SDS011;38161;53.020;6.598;2023-02-14T09:22:32;61.30;;;32.47;;
52186;SDS011;38161;53.020;6.598;2023-02-14T09:24:59;61.53;;;34.20;;
52186;SDS011;38161;53.020;6.598;2023-02-14T09:29:51;62.47;;;32.97;;
52186;SDS011;38161;53.020;6.598;2023-02-14T09:32:17;67.10;;;35.60;;
52186;SDS011;38161;53.020;6.598;2023-02-14T09:34:43;69.35;;;37.17;;
52186;SDS011;38161;53.020;6.598;2023-02-14T09:37:27;61.07;;;35.03;;
52186;SDS011;38161;53.020;6.598;2023-02-14T09:39:53;67.27;;;36.77;;
52186;SDS011;38161;53.020;6.598;2023-02-14T09:45:12;66.63;;;39.10;;
52186;SDS011;38161;53.020;6.598;2023-02-14T09:47:49;61.67;;;37.10;;
52186;SDS011;38161;53.020;6.598;2023-02-14T09:52:56;51.95;;;32.20;;
52186;SDS011;38161;53.020;6.598;2023-02-14T09:55:24;57.80;;;32.97;;
52186;SDS011;38161;53.020;6.598;2023-02-14T10:00:56;44.08;;;28.23;;
52186;SDS011;38161;53.020;6.598;2023-02-14T10:03:37;45.95;;;30.92;;
52186;SDS011;38161;53.020;6.598;2023-02-14T10:06:59;45.15;;;28.23;;
52186;SDS011;38161;53.020;6.598;2023-02-14T10:11:54;41.15;;;28.77;;
52186;SDS011;38161;53.020;6.598;2023-02-14T10:14:24;39.78;;;27.33;;
52186;SDS011;38161;53.020;6.598;2023-02-14T10:17:12;37.33;;;25.05;;
52186;SDS011;38161;53.020;6.598;2023-02-14T10:20:02;39.08;;;27.13;;
52186;SDS011;38161;53.020;6.598;2023-02-14T10:22:40;36.95;;;24.02;;
52186;SDS011;38161;53.020;6.598;2023-02-14T10:25:15;34.97;;;25.25;;
52186;SDS011;38161;53.020;6.598;2023-02-14T10:27:49;36.80;;;26.52;;
52186;SDS011;38161;53.020;6.598;2023-02-14T10:30:21;38.70;;;24.52;;
52186;SDS011;38161;53.020;6.598;2023-02-14T10:32:49;33.70;;;23.75;;
52186;SDS011;38161;53.020;6.598;2023-02-14T10:35:45;33.42;;;24.15;;
52186;SDS011;38161;53.020;6.598;2023-02-14T10:43:57;44.08;;;24.23;;
52186;SDS011;38161;53.020;6.598;2023-02-14T10:46:46;32.70;;;24.27;;
52186;SDS011;38161;53.020;6.598;2023-02-14T10:54:26;39.47;;;24.40;;
52186;SDS011;38161;53.020;6.598;2023-02-14T11:01:57;32.33;;;23.33;;
52186;SDS011;38161;53.020;6.598;2023-02-14T11:04:24;33.67;;;23.73;;
52186;SDS011;38161;53.020;6.598;2023-02-14T11:06:50;31.50;;;23.85;;
52186;SDS011;38161;53.020;6.598;2023-02-14T11:09:17;30.83;;;23.08;;
52186;SDS011;38161;53.020;6.598;2023-02-14T11:11:44;33.78;;;22.88;;
52186;SDS011;38161;53.020;6.598;2023-02-14T11:16:57;31.92;;;23.60;;
52186;SDS011;38161;53.020;6.598;2023-02-14T11:19:24;32.70;;;22.67;;
52186;SDS011;38161;53.020;6.598;2023-02-14T11:21:53;32.78;;;23.08;;
52186;SDS011;38161;53.020;6.598;2023-02-14T11:24:31;34.10;;;23.17;;
52186;SDS011;38161;53.020;6.598;2023-02-14T11:29:28;31.95;;;22.65;;
52186;SDS011;38161;53.020;6.598;2023-02-14T11:32:08;30.08;;;22.38;;
52186;SDS011;38161;53.020;6.598;2023-02-14T11:34:37;32.10;;;22.75;;
52186;SDS011;38161;53.020;6.598;2023-02-14T11:37:15;34.95;;;23.75;;
52186;SDS011;38161;53.020;6.598;2023-02-14T11:39:49;31.48;;;22.42;;
52186;SDS011;38161;53.020;6.598;2023-02-14T11:42:32;30.20;;;22.67;;
52186;SDS011;38161;53.020;6.598;2023-02-14T11:45:10;32.83;;;23.65;;
52186;SDS011;38161;53.020;6.598;2023-02-14T11:50:53;33.60;;;23.30;;
52186;SDS011;38161;53.020;6.598;2023-02-14T11:53:31;33.97;;;22.13;;
52186;SDS011;38161;53.020;6.598;2023-02-14T11:56:15;31.55;;;21.65;;
52186;SDS011;38161;53.020;6.598;2023-02-14T11:58:55;31.70;;;23.25;;
52186;SDS011;38161;53.020;6.598;2023-02-14T12:01:31;31.13;;;22.73;;
52186;SDS011;38161;53.020;6.598;2023-02-14T12:04:00;35.92;;;24.63;;
52186;SDS011;38161;53.020;6.598;2023-02-14T12:06:31;35.70;;;24.50;;
52186;SDS011;38161;53.020;6.598;2023-02-14T12:11:56;33.55;;;23.63;;
52186;SDS011;38161;53.020;6.598;2023-02-14T12:14:28;38.58;;;25.40;;
52186;SDS011;38161;53.020;6.598;2023-02-14T12:19:34;37.22;;;25.23;;
52186;SDS011;38161;53.020;6.598;2023-02-14T12:22:18;39.67;;;26.17;;
52186;SDS011;38161;53.020;6.598;2023-02-14T12:25:02;38.35;;;25.88;;
52186;SDS011;38161;53.020;6.598;2023-02-14T12:27:42;37.33;;;24.92;;
52186;SDS011;38161;53.020;6.598;2023-02-14T12:30:32;37.83;;;25.75;;
52186;SDS011;38161;53.020;6.598;2023-02-14T12:32:59;41.28;;;25.75;;
52186;SDS011;38161;53.020;6.598;2023-02-14T12:38:09;35.63;;;25.08;;
52186;SDS011;38161;53.020;6.598;2023-02-14T12:48:53;35.45;;;25.48;;
52186;SDS011;38161;53.020;6.598;2023-02-14T12:59:31;40.85;;;26.77;;
52186;SDS011;38161;53.020;6.598;2023-02-14T13:02:20;41.22;;;27.33;;
52186;SDS011;38161;53.020;6.598;2023-02-14T13:08:39;42.97;;;28.08;;
52186;SDS011;38161;53.020;6.598;2023-02-14T13:11:12;38.75;;;26.63;;
52186;SDS011;38161;53.020;6.598;2023-02-14T13:22:11;38.42;;;26.10;;
52186;SDS011;38161;53.020;6.598;2023-02-14T13:24:45;39.47;;;25.50;;
52186;SDS011;38161;53.020;6.598;2023-02-14T13:27:15;35.45;;;23.17;;
52186;SDS011;38161;53.020;6.598;2023-02-14T13:29:51;38.10;;;25.38;;
52186;SDS011;38161;53.020;6.598;2023-02-14T13:32:22;38.10;;;24.27;;
52186;SDS011;38161;53.020;6.598;2023-02-14T13:34:50;39.28;;;24.33;;
52186;SDS011;38161;53.020;6.598;2023-02-14T13:37:20;36.00;;;23.98;;
52186;SDS011;38161;53.020;6.598;2023-02-14T13:39:58;35.83;;;24.13;;
52186;SDS011;38161;53.020;6.598;2023-02-14T13:50:39;36.63;;;24.85;;
52186;SDS011;38161;53.020;6.598;2023-02-14T13:53:09;35.53;;;26.23;;
52186;SDS011;38161;53.020;6.598;2023-02-14T13:55:36;35.38;;;25.75;;
52186;SDS011;38161;53.020;6.598;2023-02-14T13:58:18;37.17;;;25.00;;
52186;SDS011;38161;53.020;6.598;2023-02-14T14:00:46;37.50;;;26.60;;
52186;SDS011;38161;53.020;6.598;2023-02-14T14:06:04;38.58;;;25.23;;
52186;SDS011;38161;53.020;6.598;2023-02-14T14:08:44;34.30;;;25.08;;
52186;SDS011;38161;53.020;6.598;2023-02-14T14:18:43;40.30;;;27.77;;
52186;SDS011;38161;53.020;6.598;2023-02-14T14:21:42;40.70;;;26.90;;
52186;SDS011;38161;53.020;6.598;2023-02-14T14:26:51;38.40;;;27.08;;
52186;SDS011;38161;53.020;6.598;2023-02-14T14:29:26;39.30;;;26.98;;
52186;SDS011;38161;53.020;6.598;2023-02-14T14:31:55;36.42;;;26.58;;
52186;SDS011;38161;53.020;6.598;2023-02-14T14:34:23;40.55;;;28.05;;
52186;SDS011;38161;53.020;6.598;2023-02-14T14:37:00;40.85;;;28.40;;
52186;SDS011;38161;53.020;6.598;2023-02-14T14:39:33;40.90;;;27.63;;
52186;SDS011;38161;53.020;6.598;2023-02-14T14:42:07;43.58;;;27.95;;
52186;SDS011;38161;53.020;6.598;2023-02-14T14:44:46;40.67;;;26.23;;
52186;SDS011;38161;53.020;6.598;2023-02-14T14:47:22;40.17;;;27.98;;
52186;SDS011;38161;53.020;6.598;2023-02-14T14:49:51;42.75;;;28.00;;
52186;SDS011;38161;53.020;6.598;2023-02-14T14:52:26;40.92;;;28.45;;
52186;SDS011;38161;53.020;6.598;2023-02-14T14:54:58;43.55;;;29.08;;
52186;SDS011;38161;53.020;6.598;2023-02-14T14:57:25;42.78;;;27.50;;
52186;SDS011;38161;53.020;6.598;2023-02-14T15:02:54;43.50;;;28.02;;
52186;SDS011;38161;53.020;6.598;2023-02-14T15:05:31;43.65;;;29.33;;
52186;SDS011;38161;53.020;6.598;2023-02-14T15:08:21;45.72;;;28.95;;
52186;SDS011;38161;53.020;6.598;2023-02-14T15:11:08;44.10;;;29.42;;
52186;SDS011;38161;53.020;6.598;2023-02-14T15:13:38;42.28;;;28.10;;
52186;SDS011;38161;53.020;6.598;2023-02-14T15:18:57;40.92;;;27.85;;
52186;SDS011;38161;53.020;6.598;2023-02-14T15:21:33;42.47;;;28.75;;
52186;SDS011;38161;53.020;6.598;2023-02-14T15:24:00;46.78;;;29.23;;
52186;SDS011;38161;53.020;6.598;2023-02-14T15:26:28;40.45;;;27.75;;
52186;SDS011;38161;53.020;6.598;2023-02-14T15:28:59;40.67;;;26.85;;
52186;SDS011;38161;53.020;6.598;2023-02-14T15:31:31;41.30;;;27.38;;
52186;SDS011;38161;53.020;6.598;2023-02-14T15:34:00;41.60;;;27.80;;
52186;SDS011;38161;53.020;6.598;2023-02-14T15:36:29;43.53;;;28.83;;
52186;SDS011;38161;53.020;6.598;2023-02-14T15:38:56;42.90;;;28.92;;
52186;SDS011;38161;53.020;6.598;2023-02-14T15:41:24;47.33;;;29.10;;
52186;SDS011;38161;53.020;6.598;2023-02-14T15:46:26;38.15;;;27.10;;
52186;SDS011;38161;53.020;6.598;2023-02-14T15:49:04;38.35;;;26.95;;
52186;SDS011;38161;53.020;6.598;2023-02-14T15:51:35;37.40;;;26.70;;
52186;SDS011;38161;53.020;6.598;2023-02-14T15:56:30;38.30;;;27.55;;
52186;SDS011;38161;53.020;6.598;2023-02-14T16:01:27;38.53;;;26.70;;
52186;SDS011;38161;53.020;6.598;2023-02-14T16:03:54;39.53;;;26.02;;
52186;SDS011;38161;53.020;6.598;2023-02-14T16:06:30;39.90;;;26.00;;
52186;SDS011;38161;53.020;6.598;2023-02-14T16:08:58;39.55;;;26.45;;
52186;SDS011;38161;53.020;6.598;2023-02-14T16:11:28;44.47;;;27.57;;
52186;SDS011;38161;53.020;6.598;2023-02-14T16:14:26;40.90;;;27.27;;
52186;SDS011;38161;53.020;6.598;2023-02-14T16:17:12;40.17;;;26.45;;
52186;SDS011;38161;53.020;6.598;2023-02-14T16:19:39;41.40;;;26.40;;
52186;SDS011;38161;53.020;6.598;2023-02-14T16:22:10;35.67;;;24.17;;
52186;SDS011;38161;53.020;6.598;2023-02-14T16:24:47;37.90;;;25.58;;
52186;SDS011;38161;53.020;6.598;2023-02-14T16:27:13;33.90;;;24.87;;
52186;SDS011;38161;53.020;6.598;2023-02-14T16:29:39;36.57;;;25.13;;
52186;SDS011;38161;53.020;6.598;2023-02-14T16:32:19;38.50;;;25.98;;
52186;SDS011;38161;53.020;6.598;2023-02-14T16:34:46;36.10;;;24.95;;
52186;SDS011;38161;53.020;6.598;2023-02-14T16:37:23;37.10;;;24.55;;
52186;SDS011;38161;53.020;6.598;2023-02-14T16:39:52;38.22;;;26.00;;
52186;SDS011;38161;53.020;6.598;2023-02-14T16:42:21;36.72;;;24.80;;
52186;SDS011;38161;53.020;6.598;2023-02-14T16:44:48;38.80;;;26.67;;
52186;SDS011;38161;53.020;6.598;2023-02-14T16:47:15;39.72;;;24.42;;
52186;SDS011;38161;53.020;6.598;2023-02-14T16:49:42;36.15;;;25.65;;
52186;SDS011;38161;53.020;6.598;2023-02-14T16:52:15;37.13;;;25.63;;
52186;SDS011;38161;53.020;6.598;2023-02-14T16:54:43;36.58;;;25.02;;
52186;SDS011;38161;53.020;6.598;2023-02-14T16:57:12;41.35;;;24.80;;
52186;SDS011;38161;53.020;6.598;2023-02-14T16:59:44;37.90;;;25.15;;
52186;SDS011;38161;53.020;6.598;2023-02-14T17:02:10;41.53;;;25.13;;
52186;SDS011;38161;53.020;6.598;2023-02-14T17:04:37;37.33;;;24.10;;
52186;SDS011;38161;53.020;6.598;2023-02-14T17:07:03;37.27;;;26.20;;
52186;SDS011;38161;53.020;6.598;2023-02-14T17:09:32;36.17;;;24.33;;
52186;SDS011;38161;53.020;6.598;2023-02-14T17:12:03;38.58;;;25.60;;
52186;SDS011;38161;53.020;6.598;2023-02-14T17:14:37;38.80;;;25.52;;
52186;SDS011;38161;53.020;6.598;2023-02-14T17:17:04;38.72;;;25.00;;
52186;SDS011;38161;53.020;6.598;2023-02-14T17:19:31;36.17;;;24.67;;
52186;SDS011;38161;53.020;6.598;2023-02-14T17:21:57;36.65;;;25.33;;
52186;SDS011;38161;53.020;6.598;2023-02-14T17:24:24;39.25;;;26.25;;